sensor_id;sensor_type;location;lat;lon;timestamp;P1;durP1;ratioP1;P2;durP2;ratioP2
9322;SDS011;4700;48.822;9.270;2023-02-28T00:02:35;108.95;;;60.42;;
9322;SDS011;4700;48.822;9.270;2023-02-28T00:05:33;112.97;;;60.50;;
9322;SDS011;4700;48.822;9.270;2023-02-28T00:08:19;107.53;;;58.53;;
9322;SDS011;4700;48.822;9.270;2023-02-28T00:11:09;110.55;;;59.42;;
9322;SDS011;4700;48.822;9.270;2023-02-28T00:13:58;110.55;;;59.88;;
9322;SDS011;4700;48.822;9.270;2023-02-28T00:16:47;114.32;;;59.85;;
9322;SDS011;4700;48.822;9.270;2023-02-28T00:19:33;116.97;;;62.05;;
9322;SDS011;4700;48.822;9.270;2023-02-28T00:22:19;113.20;;;60.50;;
9322;SDS011;4700;48.822;9.270;2023-02-28T00:25:21;119.03;;;61.35;;
9322;SDS011;4700;48.822;9.270;2023-02-28T00:30:53;113.93;;;61.78;;
9322;SDS011;4700;48.822;9.270;2023-02-28T00:34:10;114.60;;;60.53;;
9322;SDS011;4700;48.822;9.270;2023-02-28T00:36:56;114.95;;;60.78;;
9322;SDS011;4700;48.822;9.270;2023-02-28T00:39:42;117.28;;;62.28;;
9322;SDS011;4700;48.822;9.270;2023-02-28T00:42:28;123.47;;;67.45;;
9322;SDS011;4700;48.822;9.270;2023-02-28T00:48:08;114.20;;;60.58;;
9322;SDS011;4700;48.822;9.270;2023-02-28T00:50:58;113.30;;;61.05;;
9322;SDS011;4700;48.822;9.270;2023-02-28T00:53:45;116.93;;;62.33;;
9322;SDS011;4700;48.822;9.270;2023-02-28T00:56:31;120.30;;;63.35;;
9322;SDS011;4700;48.822;9.270;2023-02-28T00:59:21;125.63;;;64.65;;
9322;SDS011;4700;48.822;9.270;2023-02-28T01:02:08;120.15;;;62.58;;
9322;SDS011;4700;48.822;9.270;2023-02-28T01:04:58;121.78;;;62.20;;
9322;SDS011;4700;48.822;9.270;2023-02-28T01:07:47;118.72;;;62.97;;
9322;SDS011;4700;48.822;9.270;2023-02-28T01:10:33;126.15;;;66.22;;
9322;SDS011;4700;48.822;9.270;2023-02-28T01:18:27;114.82;;;65.95;;
9322;SDS011;4700;48.822;9.270;2023-02-28T01:21:15;127.10;;;75.03;;
9322;SDS011;4700;48.822;9.270;2023-02-28T01:24:04;136.48;;;80.10;;
9322;SDS011;4700;48.822;9.270;2023-02-28T01:26:51;136.77;;;80.22;;
9322;SDS011;4700;48.822;9.270;2023-02-28T01:29:37;143.70;;;86.90;;
9322;SDS011;4700;48.822;9.270;2023-02-28T03:23:03;111.60;;;62.13;;
9322;SDS011;4700;48.822;9.270;2023-02-28T03:25:56;122.28;;;65.47;;
9322;SDS011;4700;48.822;9.270;2023-02-28T03:33:55;111.68;;;60.33;;
9322;SDS011;4700;48.822;9.270;2023-02-28T04:31:25;114.65;;;65.05;;
9322;SDS011;4700;48.822;9.270;2023-02-28T04:34:12;133.65;;;71.35;;
9322;SDS011;4700;48.822;9.270;2023-02-28T04:37:11;135.48;;;73.55;;
9322;SDS011;4700;48.822;9.270;2023-02-28T04:45:17;129.95;;;70.75;;
9322;SDS011;4700;48.822;9.270;2023-02-28T04:56:38;145.70;;;74.07;;
9322;SDS011;4700;48.822;9.270;2023-02-28T05:37:39;155.68;;;85.03;;
9322;SDS011;4700;48.822;9.270;2023-02-28T05:40:30;155.98;;;87.32;;
9322;SDS011;4700;48.822;9.270;2023-02-28T05:43:18;159.80;;;84.65;;
9322;SDS011;4700;48.822;9.270;2023-02-28T05:46:09;162.93;;;88.72;;
9322;SDS011;4700;48.822;9.270;2023-02-28T05:49:02;164.57;;;89.43;;
9322;SDS011;4700;48.822;9.270;2023-02-28T07:16:18;153.23;;;72.10;;
9322;SDS011;4700;48.822;9.270;2023-02-28T07:21:35;161.35;;;81.32;;
9322;SDS011;4700;48.822;9.270;2023-02-28T07:24:24;173.45;;;80.07;;
9322;SDS011;4700;48.822;9.270;2023-02-28T07:37:23;163.52;;;77.57;;
9322;SDS011;4700;48.822;9.270;2023-02-28T07:40:11;173.85;;;82.03;;
9322;SDS011;4700;48.822;9.270;2023-02-28T07:48:14;167.23;;;78.43;;
9322;SDS011;4700;48.822;9.270;2023-02-28T08:29:06;139.07;;;71.07;;
9322;SDS011;4700;48.822;9.270;2023-02-28T08:39:29;145.43;;;73.72;;
9322;SDS011;4700;48.822;9.270;2023-02-28T08:55:15;126.90;;;70.85;;
9322;SDS011;4700;48.822;9.270;2023-02-28T08:58:01;184.95;;;96.20;;
9322;SDS011;4700;48.822;9.270;2023-02-28T09:00:50;142.55;;;72.38;;
9322;SDS011;4700;48.822;9.270;2023-02-28T09:03:40;138.70;;;72.75;;
9322;SDS011;4700;48.822;9.270;2023-02-28T09:11:40;126.63;;;69.30;;
9322;SDS011;4700;48.822;9.270;2023-02-28T09:14:27;144.73;;;76.28;;
9322;SDS011;4700;48.822;9.270;2023-02-28T09:17:13;149.02;;;75.95;;
9322;SDS011;4700;48.822;9.270;2023-02-28T09:20:06;224.73;;;118.07;;
9322;SDS011;4700;48.822;9.270;2023-02-28T09:23:13;159.63;;;83.05;;
9322;SDS011;4700;48.822;9.270;2023-02-28T09:26:07;183.68;;;100.63;;
9322;SDS011;4700;48.822;9.270;2023-02-28T09:31:44;214.10;;;113.60;;
9322;SDS011;4700;48.822;9.270;2023-02-28T09:34:35;267.52;;;160.82;;
9322;SDS011;4700;48.822;9.270;2023-02-28T09:42:44;212.10;;;101.68;;
9322;SDS011;4700;48.822;9.270;2023-02-28T09:45:50;207.43;;;97.68;;
9322;SDS011;4700;48.822;9.270;2023-02-28T09:48:47;198.50;;;93.93;;
9322;SDS011;4700;48.822;9.270;2023-02-28T09:51:43;189.48;;;91.63;;
9322;SDS011;4700;48.822;9.270;2023-02-28T09:54:42;195.50;;;99.70;;
9322;SDS011;4700;48.822;9.270;2023-02-28T09:57:32;172.40;;;86.18;;
9322;SDS011;4700;48.822;9.270;2023-02-28T10:00:37;171.75;;;80.20;;
9322;SDS011;4700;48.822;9.270;2023-02-28T10:03:30;162.65;;;80.82;;
9322;SDS011;4700;48.822;9.270;2023-02-28T10:06:23;156.52;;;77.57;;
9322;SDS011;4700;48.822;9.270;2023-02-28T10:09:16;145.95;;;74.32;;
9322;SDS011;4700;48.822;9.270;2023-02-28T10:12:08;140.85;;;74.93;;
9322;SDS011;4700;48.822;9.270;2023-02-28T10:15:00;136.82;;;75.28;;
9322;SDS011;4700;48.822;9.270;2023-02-28T10:17:51;142.80;;;74.97;;
9322;SDS011;4700;48.822;9.270;2023-02-28T10:20:46;131.90;;;78.53;;
9322;SDS011;4700;48.822;9.270;2023-02-28T10:23:41;116.70;;;75.65;;
9322;SDS011;4700;48.822;9.270;2023-02-28T10:26:32;112.32;;;80.60;;
9322;SDS011;4700;48.822;9.270;2023-02-28T10:29:19;120.90;;;101.78;;
9322;SDS011;4700;48.822;9.270;2023-02-28T10:32:06;115.57;;;95.80;;
9322;SDS011;4700;48.822;9.270;2023-02-28T10:34:53;113.63;;;100.43;;
9322;SDS011;4700;48.822;9.270;2023-02-28T10:37:46;111.20;;;96.57;;
9322;SDS011;4700;48.822;9.270;2023-02-28T10:43:19;131.77;;;121.13;;
9322;SDS011;4700;48.822;9.270;2023-02-28T10:46:10;115.47;;;95.60;;
9322;SDS011;4700;48.822;9.270;2023-02-28T10:49:14;113.93;;;91.50;;
9322;SDS011;4700;48.822;9.270;2023-02-28T10:52:03;113.68;;;90.90;;
9322;SDS011;4700;48.822;9.270;2023-02-28T10:54:49;125.73;;;94.63;;
9322;SDS011;4700;48.822;9.270;2023-02-28T10:57:55;120.00;;;91.95;;
9322;SDS011;4700;48.822;9.270;2023-02-28T11:00:43;136.60;;;100.67;;
9322;SDS011;4700;48.822;9.270;2023-02-28T11:03:30;121.57;;;99.00;;
9322;SDS011;4700;48.822;9.270;2023-02-28T11:06:18;128.57;;;96.17;;
9322;SDS011;4700;48.822;9.270;2023-02-28T11:09:14;126.70;;;96.87;;
9322;SDS011;4700;48.822;9.270;2023-02-28T11:12:19;113.10;;;85.70;;
9322;SDS011;4700;48.822;9.270;2023-02-28T11:15:18;116.87;;;90.67;;
9322;SDS011;4700;48.822;9.270;2023-02-28T11:18:18;117.43;;;90.30;;
9322;SDS011;4700;48.822;9.270;2023-02-28T11:21:17;119.55;;;95.68;;
9322;SDS011;4700;48.822;9.270;2023-02-28T11:24:19;113.45;;;85.75;;
9322;SDS011;4700;48.822;9.270;2023-02-28T11:27:24;107.93;;;83.90;;
9322;SDS011;4700;48.822;9.270;2023-02-28T11:33:20;125.57;;;95.63;;
9322;SDS011;4700;48.822;9.270;2023-02-28T11:38:38;119.93;;;100.60;;
9322;SDS011;4700;48.822;9.270;2023-02-28T11:41:38;125.80;;;100.45;;
9322;SDS011;4700;48.822;9.270;2023-02-28T11:44:44;147.93;;;83.53;;
9322;SDS011;4700;48.822;9.270;2023-02-28T11:47:42;157.73;;;80.68;;
9322;SDS011;4700;48.822;9.270;2023-02-28T11:54:02;174.23;;;86.68;;
9322;SDS011;4700;48.822;9.270;2023-02-28T11:57:10;170.32;;;81.55;;
9322;SDS011;4700;48.822;9.270;2023-02-28T12:00:14;178.02;;;86.47;;
9322;SDS011;4700;48.822;9.270;2023-02-28T12:03:14;183.27;;;84.20;;
9322;SDS011;4700;48.822;9.270;2023-02-28T12:06:13;174.90;;;84.95;;
9322;SDS011;4700;48.822;9.270;2023-02-28T12:09:13;177.85;;;88.50;;
9322;SDS011;4700;48.822;9.270;2023-02-28T12:12:20;182.68;;;93.78;;
9322;SDS011;4700;48.822;9.270;2023-02-28T12:18:28;158.10;;;85.13;;
9322;SDS011;4700;48.822;9.270;2023-02-28T12:21:30;159.20;;;91.50;;
9322;SDS011;4700;48.822;9.270;2023-02-28T12:24:26;136.00;;;80.10;;
9322;SDS011;4700;48.822;9.270;2023-02-28T12:27:22;148.57;;;96.60;;
9322;SDS011;4700;48.822;9.270;2023-02-28T12:30:13;152.00;;;109.82;;
9322;SDS011;4700;48.822;9.270;2023-02-28T12:33:05;128.90;;;94.47;;
9322;SDS011;4700;48.822;9.270;2023-02-28T12:35:54;126.17;;;110.97;;
9322;SDS011;4700;48.822;9.270;2023-02-28T12:38:44;135.37;;;110.27;;
9322;SDS011;4700;48.822;9.270;2023-02-28T12:41:34;138.70;;;103.87;;
9322;SDS011;4700;48.822;9.270;2023-02-28T12:44:26;129.37;;;102.33;;
9322;SDS011;4700;48.822;9.270;2023-02-28T12:47:17;130.00;;;103.97;;
9322;SDS011;4700;48.822;9.270;2023-02-28T12:50:05;146.27;;;132.60;;
9322;SDS011;4700;48.822;9.270;2023-02-28T12:52:56;154.37;;;138.53;;
9322;SDS011;4700;48.822;9.270;2023-02-28T12:55:48;133.07;;;119.07;;
9322;SDS011;4700;48.822;9.270;2023-02-28T12:58:39;139.03;;;124.83;;
9322;SDS011;4700;48.822;9.270;2023-02-28T13:01:38;179.90;;;166.00;;
9322;SDS011;4700;48.822;9.270;2023-02-28T13:08:03;141.27;;;110.83;;
9322;SDS011;4700;48.822;9.270;2023-02-28T13:11:10;143.83;;;98.93;;
9322;SDS011;4700;48.822;9.270;2023-02-28T13:14:19;131.53;;;92.83;;
9322;SDS011;4700;48.822;9.270;2023-02-28T13:17:15;131.83;;;108.70;;
9322;SDS011;4700;48.822;9.270;2023-02-28T13:20:18;153.77;;;141.07;;
9322;SDS011;4700;48.822;9.270;2023-02-28T13:26:34;139.47;;;111.93;;
9322;SDS011;4700;48.822;9.270;2023-02-28T13:40:32;137.03;;;99.63;;
9322;SDS011;4700;48.822;9.270;2023-02-28T13:43:24;118.10;;;92.90;;
9322;SDS011;4700;48.822;9.270;2023-02-28T13:50:14;140.47;;;106.40;;
9322;SDS011;4700;48.822;9.270;2023-02-28T13:56:34;127.83;;;94.17;;
9322;SDS011;4700;48.822;9.270;2023-02-28T13:59:31;134.20;;;95.87;;
9322;SDS011;4700;48.822;9.270;2023-02-28T14:05:40;132.50;;;113.00;;
9322;SDS011;4700;48.822;9.270;2023-02-28T14:08:26;124.20;;;108.67;;
9322;SDS011;4700;48.822;9.270;2023-02-28T14:11:23;111.67;;;90.77;;
9322;SDS011;4700;48.822;9.270;2023-02-28T14:17:34;116.70;;;101.17;;
9322;SDS011;4700;48.822;9.270;2023-02-28T14:20:21;112.57;;;97.17;;
9322;SDS011;4700;48.822;9.270;2023-02-28T14:23:13;108.57;;;97.07;;
9322;SDS011;4700;48.822;9.270;2023-02-28T14:26:07;142.33;;;130.53;;
9322;SDS011;4700;48.822;9.270;2023-02-28T14:29:26;126.23;;;113.87;;
9322;SDS011;4700;48.822;9.270;2023-02-28T14:32:22;134.67;;;122.20;;
9322;SDS011;4700;48.822;9.270;2023-02-28T14:35:22;125.70;;;115.47;;
9322;SDS011;4700;48.822;9.270;2023-02-28T14:38:23;141.60;;;132.67;;
9322;SDS011;4700;48.822;9.270;2023-02-28T14:41:22;120.13;;;109.70;;
9322;SDS011;4700;48.822;9.270;2023-02-28T14:44:13;113.00;;;103.13;;
9322;SDS011;4700;48.822;9.270;2023-02-28T14:47:02;100.13;;;93.30;;
9322;SDS011;4700;48.822;9.270;2023-02-28T14:49:50;80.30;;;74.77;;
9322;SDS011;4700;48.822;9.270;2023-02-28T14:52:36;49.13;;;45.27;;
9322;SDS011;4700;48.822;9.270;2023-02-28T14:55:25;70.17;;;63.87;;
9322;SDS011;4700;48.822;9.270;2023-02-28T14:58:19;68.73;;;62.30;;
9322;SDS011;4700;48.822;9.270;2023-02-28T15:01:09;103.03;;;96.00;;
9322;SDS011;4700;48.822;9.270;2023-02-28T15:03:56;127.00;;;119.37;;
9322;SDS011;4700;48.822;9.270;2023-02-28T15:06:45;114.17;;;104.07;;
9322;SDS011;4700;48.822;9.270;2023-02-28T15:09:31;125.73;;;114.60;;
9322;SDS011;4700;48.822;9.270;2023-02-28T15:12:18;103.67;;;94.53;;
9322;SDS011;4700;48.822;9.270;2023-02-28T15:15:05;84.93;;;77.93;;
9322;SDS011;4700;48.822;9.270;2023-02-28T15:17:59;101.00;;;92.73;;
9322;SDS011;4700;48.822;9.270;2023-02-28T15:20:47;100.10;;;91.00;;
9322;SDS011;4700;48.822;9.270;2023-02-28T15:23:34;103.73;;;93.93;;
9322;SDS011;4700;48.822;9.270;2023-02-28T15:26:22;110.73;;;99.77;;
9322;SDS011;4700;48.822;9.270;2023-02-28T15:29:13;107.57;;;98.23;;
9322;SDS011;4700;48.822;9.270;2023-02-28T15:32:03;105.17;;;95.73;;
9322;SDS011;4700;48.822;9.270;2023-02-28T15:34:50;116.77;;;106.10;;
9322;SDS011;4700;48.822;9.270;2023-02-28T15:37:38;114.70;;;104.37;;
9322;SDS011;4700;48.822;9.270;2023-02-28T15:40:27;102.10;;;92.37;;
9322;SDS011;4700;48.822;9.270;2023-02-28T15:43:15;114.50;;;104.67;;
9322;SDS011;4700;48.822;9.270;2023-02-28T15:46:04;110.90;;;100.27;;
9322;SDS011;4700;48.822;9.270;2023-02-28T15:48:53;114.67;;;103.50;;
9322;SDS011;4700;48.822;9.270;2023-02-28T15:51:41;119.03;;;106.93;;
9322;SDS011;4700;48.822;9.270;2023-02-28T15:54:28;108.37;;;97.40;;
9322;SDS011;4700;48.822;9.270;2023-02-28T15:57:17;107.37;;;95.43;;
9322;SDS011;4700;48.822;9.270;2023-02-28T16:00:06;102.17;;;89.30;;
9322;SDS011;4700;48.822;9.270;2023-02-28T16:02:58;89.57;;;75.20;;
9322;SDS011;4700;48.822;9.270;2023-02-28T16:05:44;103.27;;;91.73;;
9322;SDS011;4700;48.822;9.270;2023-02-28T16:08:29;115.73;;;103.97;;
9322;SDS011;4700;48.822;9.270;2023-02-28T16:11:16;112.10;;;99.67;;
9322;SDS011;4700;48.822;9.270;2023-02-28T16:14:02;105.10;;;91.17;;
9322;SDS011;4700;48.822;9.270;2023-02-28T16:16:51;95.40;;;81.97;;
9322;SDS011;4700;48.822;9.270;2023-02-28T16:19:40;97.10;;;83.47;;
9322;SDS011;4700;48.822;9.270;2023-02-28T16:22:26;99.53;;;79.80;;
9322;SDS011;4700;48.822;9.270;2023-02-28T16:25:13;99.57;;;81.43;;
9322;SDS011;4700;48.822;9.270;2023-02-28T16:27:59;107.13;;;78.67;;
9322;SDS011;4700;48.822;9.270;2023-02-28T16:30:46;104.27;;;76.03;;
9322;SDS011;4700;48.822;9.270;2023-02-28T16:33:32;106.23;;;74.53;;
9322;SDS011;4700;48.822;9.270;2023-02-28T16:36:25;109.23;;;70.83;;
9322;SDS011;4700;48.822;9.270;2023-02-28T16:39:12;118.67;;;73.27;;
9322;SDS011;4700;48.822;9.270;2023-02-28T16:41:58;122.67;;;78.27;;
9322;SDS011;4700;48.822;9.270;2023-02-28T16:44:44;106.60;;;73.53;;
9322;SDS011;4700;48.822;9.270;2023-02-28T16:47:31;107.70;;;72.90;;
9322;SDS011;4700;48.822;9.270;2023-02-28T16:50:18;111.80;;;71.40;;
9322;SDS011;4700;48.822;9.270;2023-02-28T16:53:08;114.90;;;76.67;;
9322;SDS011;4700;48.822;9.270;2023-02-28T16:55:55;116.35;;;76.63;;
9322;SDS011;4700;48.822;9.270;2023-02-28T16:58:41;114.32;;;72.93;;
9322;SDS011;4700;48.822;9.270;2023-02-28T17:01:27;117.57;;;70.93;;
9322;SDS011;4700;48.822;9.270;2023-02-28T17:04:14;121.93;;;75.13;;
9322;SDS011;4700;48.822;9.270;2023-02-28T17:07:00;117.65;;;75.53;;
9322;SDS011;4700;48.822;9.270;2023-02-28T17:09:48;122.07;;;75.77;;
9322;SDS011;4700;48.822;9.270;2023-02-28T17:12:34;123.10;;;77.87;;
9322;SDS011;4700;48.822;9.270;2023-02-28T17:15:20;116.67;;;72.13;;
9322;SDS011;4700;48.822;9.270;2023-02-28T17:18:08;122.50;;;76.37;;
9322;SDS011;4700;48.822;9.270;2023-02-28T17:20:58;127.83;;;78.63;;
9322;SDS011;4700;48.822;9.270;2023-02-28T17:23:44;120.68;;;73.90;;
9322;SDS011;4700;48.822;9.270;2023-02-28T17:26:32;116.80;;;72.50;;
9322;SDS011;4700;48.822;9.270;2023-02-28T17:29:18;120.95;;;74.65;;
9322;SDS011;4700;48.822;9.270;2023-02-28T17:32:09;122.47;;;74.25;;
9322;SDS011;4700;48.822;9.270;2023-02-28T17:34:55;120.57;;;71.63;;
9322;SDS011;4700;48.822;9.270;2023-02-28T17:37:41;121.70;;;71.97;;
9322;SDS011;4700;48.822;9.270;2023-02-28T17:40:30;114.30;;;67.95;;
9322;SDS011;4700;48.822;9.270;2023-02-28T17:43:19;133.73;;;75.95;;
9322;SDS011;4700;48.822;9.270;2023-02-28T17:48:35;119.85;;;75.25;;
9322;SDS011;4700;48.822;9.270;2023-02-28T17:51:22;124.85;;;77.20;;
9322;SDS011;4700;48.822;9.270;2023-02-28T18:09:21;125.03;;;69.60;;
9322;SDS011;4700;48.822;9.270;2023-02-28T18:12:08;131.32;;;72.15;;
